sensor_id;sensor_type;location;lat;lon;timestamp;P1;durP1;ratioP1;P2;durP2;ratioP2
11010;SDS011;5558;42.702;23.178;2024-02-28T00:00:13;13.87;;;10.90;;
11010;SDS011;5558;42.702;23.178;2024-02-28T00:02:40;11.83;;;9.43;;
11010;SDS011;5558;42.702;23.178;2024-02-28T00:05:08;10.97;;;8.80;;
11010;SDS011;5558;42.702;23.178;2024-02-28T00:07:35;10.50;;;8.43;;
11010;SDS011;5558;42.702;23.178;2024-02-28T00:10:02;10.43;;;8.50;;
11010;SDS011;5558;42.702;23.178;2024-02-28T00:12:29;12.60;;;9.23;;
11010;SDS011;5558;42.702;23.178;2024-02-28T00:14:55;10.30;;;8.77;;
11010;SDS011;5558;42.702;23.178;2024-02-28T00:17:23;10.03;;;8.77;;
11010;SDS011;5558;42.702;23.178;2024-02-28T00:19:50;10.53;;;9.43;;
11010;SDS011;5558;42.702;23.178;2024-02-28T00:22:18;10.43;;;9.20;;
11010;SDS011;5558;42.702;23.178;2024-02-28T00:24:45;11.03;;;8.73;;
11010;SDS011;5558;42.702;23.178;2024-02-28T00:27:12;10.37;;;8.70;;
11010;SDS011;5558;42.702;23.178;2024-02-28T00:29:39;10.10;;;8.90;;
11010;SDS011;5558;42.702;23.178;2024-02-28T00:32:06;9.57;;;8.23;;
11010;SDS011;5558;42.702;23.178;2024-02-28T00:34:32;10.43;;;8.67;;
11010;SDS011;5558;42.702;23.178;2024-02-28T00:36:59;11.20;;;9.40;;
11010;SDS011;5558;42.702;23.178;2024-02-28T00:39:27;20.73;;;16.07;;
11010;SDS011;5558;42.702;23.178;2024-02-28T00:41:54;15.87;;;12.40;;
11010;SDS011;5558;42.702;23.178;2024-02-28T00:44:21;12.07;;;10.30;;
11010;SDS011;5558;42.702;23.178;2024-02-28T00:46:48;17.33;;;13.90;;
11010;SDS011;5558;42.702;23.178;2024-02-28T00:49:14;20.13;;;15.07;;
11010;SDS011;5558;42.702;23.178;2024-02-28T00:51:41;21.37;;;16.63;;
11010;SDS011;5558;42.702;23.178;2024-02-28T00:54:08;19.90;;;14.77;;
11010;SDS011;5558;42.702;23.178;2024-02-28T00:56:36;18.63;;;14.10;;
11010;SDS011;5558;42.702;23.178;2024-02-28T00:59:02;19.33;;;15.60;;
11010;SDS011;5558;42.702;23.178;2024-02-28T01:01:31;20.40;;;15.97;;
11010;SDS011;5558;42.702;23.178;2024-02-28T01:03:58;20.33;;;16.13;;
11010;SDS011;5558;42.702;23.178;2024-02-28T01:06:24;16.87;;;14.63;;
11010;SDS011;5558;42.702;23.178;2024-02-28T01:08:51;20.63;;;15.37;;
11010;SDS011;5558;42.702;23.178;2024-02-28T01:11:18;21.37;;;15.70;;
11010;SDS011;5558;42.702;23.178;2024-02-28T01:13:45;17.90;;;13.80;;
11010;SDS011;5558;42.702;23.178;2024-02-28T01:16:12;17.63;;;14.47;;
11010;SDS011;5558;42.702;23.178;2024-02-28T01:18:39;19.47;;;15.63;;
11010;SDS011;5558;42.702;23.178;2024-02-28T01:21:05;21.43;;;15.20;;
11010;SDS011;5558;42.702;23.178;2024-02-28T01:23:32;20.87;;;15.00;;
11010;SDS011;5558;42.702;23.178;2024-02-28T01:25:59;19.20;;;15.57;;
11010;SDS011;5558;42.702;23.178;2024-02-28T01:28:28;19.47;;;15.90;;
11010;SDS011;5558;42.702;23.178;2024-02-28T01:30:56;20.40;;;16.17;;
11010;SDS011;5558;42.702;23.178;2024-02-28T01:33:23;20.47;;;16.30;;
11010;SDS011;5558;42.702;23.178;2024-02-28T01:35:49;20.00;;;15.97;;
11010;SDS011;5558;42.702;23.178;2024-02-28T01:38:16;19.77;;;15.47;;
11010;SDS011;5558;42.702;23.178;2024-02-28T01:40:44;19.00;;;15.20;;
11010;SDS011;5558;42.702;23.178;2024-02-28T01:43:11;19.97;;;15.23;;
11010;SDS011;5558;42.702;23.178;2024-02-28T01:45:38;17.37;;;14.50;;
11010;SDS011;5558;42.702;23.178;2024-02-28T01:48:06;17.17;;;14.80;;
11010;SDS011;5558;42.702;23.178;2024-02-28T01:50:36;18.77;;;13.80;;
11010;SDS011;5558;42.702;23.178;2024-02-28T01:53:03;16.43;;;14.13;;
11010;SDS011;5558;42.702;23.178;2024-02-28T01:55:33;16.97;;;13.93;;
11010;SDS011;5558;42.702;23.178;2024-02-28T01:58:00;14.03;;;12.30;;
11010;SDS011;5558;42.702;23.178;2024-02-28T02:00:30;16.73;;;13.00;;
11010;SDS011;5558;42.702;23.178;2024-02-28T02:02:59;14.50;;;13.00;;
11010;SDS011;5558;42.702;23.178;2024-02-28T02:05:28;17.67;;;13.57;;
11010;SDS011;5558;42.702;23.178;2024-02-28T02:07:55;15.53;;;13.07;;
11010;SDS011;5558;42.702;23.178;2024-02-28T02:10:23;17.30;;;13.43;;
11010;SDS011;5558;42.702;23.178;2024-02-28T02:12:50;15.97;;;13.03;;
11010;SDS011;5558;42.702;23.178;2024-02-28T02:15:17;16.07;;;13.23;;
11010;SDS011;5558;42.702;23.178;2024-02-28T02:17:44;15.07;;;13.33;;
11010;SDS011;5558;42.702;23.178;2024-02-28T02:20:11;15.53;;;12.90;;
11010;SDS011;5558;42.702;23.178;2024-02-28T02:22:42;16.27;;;13.07;;
11010;SDS011;5558;42.702;23.178;2024-02-28T02:25:09;16.37;;;13.87;;
11010;SDS011;5558;42.702;23.178;2024-02-28T02:27:35;17.83;;;14.07;;
11010;SDS011;5558;42.702;23.178;2024-02-28T02:30:02;17.87;;;14.43;;
11010;SDS011;5558;42.702;23.178;2024-02-28T02:32:29;19.27;;;15.13;;
11010;SDS011;5558;42.702;23.178;2024-02-28T02:34:56;20.20;;;14.73;;
11010;SDS011;5558;42.702;23.178;2024-02-28T02:37:23;18.90;;;16.00;;
11010;SDS011;5558;42.702;23.178;2024-02-28T02:39:51;18.60;;;15.33;;
11010;SDS011;5558;42.702;23.178;2024-02-28T02:42:18;20.97;;;17.23;;
11010;SDS011;5558;42.702;23.178;2024-02-28T02:44:45;18.43;;;15.20;;
11010;SDS011;5558;42.702;23.178;2024-02-28T02:47:11;18.87;;;15.87;;
11010;SDS011;5558;42.702;23.178;2024-02-28T02:49:38;22.47;;;18.43;;
11010;SDS011;5558;42.702;23.178;2024-02-28T02:52:05;24.73;;;18.23;;
11010;SDS011;5558;42.702;23.178;2024-02-28T02:54:32;22.23;;;18.37;;
11010;SDS011;5558;42.702;23.178;2024-02-28T02:57:00;20.23;;;16.70;;
11010;SDS011;5558;42.702;23.178;2024-02-28T02:59:26;22.90;;;18.33;;
11010;SDS011;5558;42.702;23.178;2024-02-28T03:01:53;20.67;;;17.43;;
11010;SDS011;5558;42.702;23.178;2024-02-28T03:04:20;22.20;;;18.67;;
11010;SDS011;5558;42.702;23.178;2024-02-28T03:06:46;19.80;;;17.70;;
11010;SDS011;5558;42.702;23.178;2024-02-28T03:09:13;22.63;;;18.03;;
11010;SDS011;5558;42.702;23.178;2024-02-28T03:11:40;20.30;;;17.27;;
11010;SDS011;5558;42.702;23.178;2024-02-28T03:14:08;20.47;;;17.17;;
11010;SDS011;5558;42.702;23.178;2024-02-28T03:16:34;23.67;;;17.43;;
11010;SDS011;5558;42.702;23.178;2024-02-28T03:19:02;19.50;;;16.10;;
11010;SDS011;5558;42.702;23.178;2024-02-28T03:21:30;21.37;;;16.60;;
11010;SDS011;5558;42.702;23.178;2024-02-28T03:23:56;19.37;;;16.93;;
11010;SDS011;5558;42.702;23.178;2024-02-28T03:26:23;17.40;;;14.77;;
11010;SDS011;5558;42.702;23.178;2024-02-28T03:28:50;18.43;;;14.63;;
11010;SDS011;5558;42.702;23.178;2024-02-28T03:31:18;16.90;;;14.17;;
11010;SDS011;5558;42.702;23.178;2024-02-28T03:33:45;17.37;;;14.20;;
11010;SDS011;5558;42.702;23.178;2024-02-28T03:36:12;17.23;;;13.87;;
11010;SDS011;5558;42.702;23.178;2024-02-28T03:38:38;17.80;;;15.23;;
11010;SDS011;5558;42.702;23.178;2024-02-28T03:41:06;19.83;;;16.17;;
11010;SDS011;5558;42.702;23.178;2024-02-28T03:43:32;19.30;;;16.23;;
11010;SDS011;5558;42.702;23.178;2024-02-28T03:45:59;19.53;;;15.67;;
11010;SDS011;5558;42.702;23.178;2024-02-28T03:48:27;20.00;;;16.40;;
11010;SDS011;5558;42.702;23.178;2024-02-28T03:50:54;19.53;;;16.53;;
11010;SDS011;5558;42.702;23.178;2024-02-28T03:53:20;19.90;;;16.17;;
11010;SDS011;5558;42.702;23.178;2024-02-28T03:55:47;20.13;;;16.63;;
11010;SDS011;5558;42.702;23.178;2024-02-28T03:58:13;23.07;;;18.10;;
11010;SDS011;5558;42.702;23.178;2024-02-28T04:00:40;18.73;;;15.97;;
11010;SDS011;5558;42.702;23.178;2024-02-28T04:03:09;17.17;;;14.40;;
11010;SDS011;5558;42.702;23.178;2024-02-28T04:05:37;18.93;;;15.43;;
11010;SDS011;5558;42.702;23.178;2024-02-28T04:08:04;20.27;;;17.10;;
11010;SDS011;5558;42.702;23.178;2024-02-28T04:10:31;22.20;;;18.37;;
11010;SDS011;5558;42.702;23.178;2024-02-28T04:12:58;31.10;;;27.70;;
11010;SDS011;5558;42.702;23.178;2024-02-28T04:15:24;33.37;;;30.30;;
11010;SDS011;5558;42.702;23.178;2024-02-28T04:17:52;52.67;;;48.30;;
11010;SDS011;5558;42.702;23.178;2024-02-28T04:20:19;23.97;;;20.90;;
11010;SDS011;5558;42.702;23.178;2024-02-28T04:22:47;21.93;;;17.83;;
11010;SDS011;5558;42.702;23.178;2024-02-28T04:25:13;21.93;;;17.97;;
11010;SDS011;5558;42.702;23.178;2024-02-28T04:27:40;21.93;;;17.27;;
11010;SDS011;5558;42.702;23.178;2024-02-28T04:30:07;19.63;;;16.77;;
11010;SDS011;5558;42.702;23.178;2024-02-28T04:32:34;18.13;;;15.60;;
11010;SDS011;5558;42.702;23.178;2024-02-28T04:35:01;20.07;;;16.60;;
11010;SDS011;5558;42.702;23.178;2024-02-28T04:37:28;21.10;;;16.93;;
11010;SDS011;5558;42.702;23.178;2024-02-28T04:39:56;24.67;;;20.23;;
11010;SDS011;5558;42.702;23.178;2024-02-28T04:42:23;21.60;;;18.13;;
11010;SDS011;5558;42.702;23.178;2024-02-28T04:44:50;22.13;;;16.93;;
11010;SDS011;5558;42.702;23.178;2024-02-28T04:47:16;23.37;;;18.87;;
11010;SDS011;5558;42.702;23.178;2024-02-28T04:49:43;23.00;;;18.13;;
11010;SDS011;5558;42.702;23.178;2024-02-28T04:52:10;22.60;;;18.73;;
11010;SDS011;5558;42.702;23.178;2024-02-28T04:54:36;24.37;;;19.87;;
11010;SDS011;5558;42.702;23.178;2024-02-28T04:57:07;24.73;;;20.90;;
11010;SDS011;5558;42.702;23.178;2024-02-28T04:59:34;28.77;;;21.23;;
11010;SDS011;5558;42.702;23.178;2024-02-28T05:02:01;26.67;;;21.23;;
11010;SDS011;5558;42.702;23.178;2024-02-28T05:04:28;28.30;;;21.23;;
11010;SDS011;5558;42.702;23.178;2024-02-28T05:06:55;30.30;;;20.90;;
11010;SDS011;5558;42.702;23.178;2024-02-28T05:09:21;35.27;;;23.47;;
11010;SDS011;5558;42.702;23.178;2024-02-28T05:11:48;38.37;;;25.00;;
11010;SDS011;5558;42.702;23.178;2024-02-28T05:14:16;37.33;;;25.57;;
11010;SDS011;5558;42.702;23.178;2024-02-28T05:16:43;37.30;;;24.77;;
11010;SDS011;5558;42.702;23.178;2024-02-28T05:19:10;36.33;;;24.33;;
11010;SDS011;5558;42.702;23.178;2024-02-28T05:21:40;35.87;;;25.27;;
11010;SDS011;5558;42.702;23.178;2024-02-28T05:24:07;32.30;;;24.10;;
11010;SDS011;5558;42.702;23.178;2024-02-28T05:26:34;39.87;;;26.90;;
11010;SDS011;5558;42.702;23.178;2024-02-28T05:29:01;37.20;;;24.50;;
11010;SDS011;5558;42.702;23.178;2024-02-28T05:31:30;34.57;;;22.97;;
11010;SDS011;5558;42.702;23.178;2024-02-28T05:33:58;34.63;;;24.67;;
11010;SDS011;5558;42.702;23.178;2024-02-28T05:36:25;29.90;;;22.07;;
11010;SDS011;5558;42.702;23.178;2024-02-28T05:38:53;25.80;;;20.13;;
11010;SDS011;5558;42.702;23.178;2024-02-28T05:41:21;24.67;;;18.93;;
11010;SDS011;5558;42.702;23.178;2024-02-28T05:43:48;24.83;;;19.47;;
11010;SDS011;5558;42.702;23.178;2024-02-28T05:46:16;25.33;;;18.33;;
11010;SDS011;5558;42.702;23.178;2024-02-28T05:48:44;25.70;;;18.77;;
11010;SDS011;5558;42.702;23.178;2024-02-28T05:51:11;23.27;;;17.57;;
11010;SDS011;5558;42.702;23.178;2024-02-28T05:53:39;23.73;;;17.53;;
11010;SDS011;5558;42.702;23.178;2024-02-28T05:56:06;21.47;;;16.23;;
11010;SDS011;5558;42.702;23.178;2024-02-28T05:58:38;20.00;;;16.00;;
11010;SDS011;5558;42.702;23.178;2024-02-28T06:01:05;20.73;;;16.10;;
11010;SDS011;5558;42.702;23.178;2024-02-28T06:03:32;19.07;;;15.57;;
11010;SDS011;5558;42.702;23.178;2024-02-28T06:06:00;19.03;;;15.07;;
11010;SDS011;5558;42.702;23.178;2024-02-28T06:08:29;18.90;;;14.87;;
11010;SDS011;5558;42.702;23.178;2024-02-28T06:10:57;18.33;;;14.07;;
11010;SDS011;5558;42.702;23.178;2024-02-28T06:13:24;18.00;;;14.27;;
11010;SDS011;5558;42.702;23.178;2024-02-28T06:15:50;16.30;;;14.33;;
11010;SDS011;5558;42.702;23.178;2024-02-28T06:18:17;18.23;;;15.87;;
11010;SDS011;5558;42.702;23.178;2024-02-28T06:20:44;19.13;;;16.67;;
11010;SDS011;5558;42.702;23.178;2024-02-28T06:23:12;21.57;;;16.43;;
11010;SDS011;5558;42.702;23.178;2024-02-28T06:25:38;20.90;;;16.87;;
11010;SDS011;5558;42.702;23.178;2024-02-28T06:28:05;21.87;;;16.63;;
11010;SDS011;5558;42.702;23.178;2024-02-28T06:30:32;18.20;;;15.33;;
11010;SDS011;5558;42.702;23.178;2024-02-28T06:32:59;19.37;;;15.13;;
11010;SDS011;5558;42.702;23.178;2024-02-28T06:35:26;19.13;;;15.10;;
11010;SDS011;5558;42.702;23.178;2024-02-28T06:37:52;19.80;;;15.70;;
11010;SDS011;5558;42.702;23.178;2024-02-28T06:40:21;20.13;;;16.90;;
11010;SDS011;5558;42.702;23.178;2024-02-28T06:42:47;21.37;;;16.87;;
11010;SDS011;5558;42.702;23.178;2024-02-28T06:45:14;21.37;;;16.50;;
11010;SDS011;5558;42.702;23.178;2024-02-28T06:47:41;19.40;;;16.30;;
11010;SDS011;5558;42.702;23.178;2024-02-28T06:50:10;20.73;;;16.00;;
11010;SDS011;5558;42.702;23.178;2024-02-28T06:52:36;18.07;;;14.70;;
11010;SDS011;5558;42.702;23.178;2024-02-28T06:55:03;18.67;;;14.33;;
11010;SDS011;5558;42.702;23.178;2024-02-28T06:57:36;16.07;;;14.27;;
11010;SDS011;5558;42.702;23.178;2024-02-28T07:00:04;19.13;;;15.00;;
11010;SDS011;5558;42.702;23.178;2024-02-28T07:02:33;18.33;;;15.50;;
11010;SDS011;5558;42.702;23.178;2024-02-28T07:05:00;19.03;;;15.80;;
11010;SDS011;5558;42.702;23.178;2024-02-28T07:07:26;18.50;;;15.13;;
11010;SDS011;5558;42.702;23.178;2024-02-28T07:09:53;20.40;;;16.30;;
11010;SDS011;5558;42.702;23.178;2024-02-28T07:12:20;21.77;;;17.93;;
11010;SDS011;5558;42.702;23.178;2024-02-28T07:14:48;23.27;;;18.17;;
11010;SDS011;5558;42.702;23.178;2024-02-28T07:17:14;23.03;;;17.60;;
11010;SDS011;5558;42.702;23.178;2024-02-28T07:19:41;21.77;;;16.93;;
11010;SDS011;5558;42.702;23.178;2024-02-28T07:22:07;20.90;;;17.23;;
11010;SDS011;5558;42.702;23.178;2024-02-28T07:24:34;22.27;;;18.13;;
11010;SDS011;5558;42.702;23.178;2024-02-28T07:27:02;21.30;;;17.77;;
11010;SDS011;5558;42.702;23.178;2024-02-28T07:29:28;21.90;;;18.07;;
11010;SDS011;5558;42.702;23.178;2024-02-28T07:31:56;24.33;;;18.83;;
11010;SDS011;5558;42.702;23.178;2024-02-28T07:34:23;23.27;;;19.67;;
11010;SDS011;5558;42.702;23.178;2024-02-28T07:36:50;25.20;;;19.27;;
11010;SDS011;5558;42.702;23.178;2024-02-28T07:39:16;24.07;;;19.67;;
11010;SDS011;5558;42.702;23.178;2024-02-28T07:41:43;25.13;;;19.73;;
11010;SDS011;5558;42.702;23.178;2024-02-28T07:44:10;24.03;;;19.47;;
11010;SDS011;5558;42.702;23.178;2024-02-28T07:46:37;22.73;;;18.33;;
11010;SDS011;5558;42.702;23.178;2024-02-28T07:49:05;23.60;;;19.37;;
11010;SDS011;5558;42.702;23.178;2024-02-28T07:51:31;23.67;;;18.27;;
11010;SDS011;5558;42.702;23.178;2024-02-28T07:53:58;22.37;;;19.23;;
11010;SDS011;5558;42.702;23.178;2024-02-28T07:56:25;53.33;;;37.73;;
11010;SDS011;5558;42.702;23.178;2024-02-28T07:58:52;24.13;;;20.40;;
11010;SDS011;5558;42.702;23.178;2024-02-28T08:01:18;28.17;;;21.57;;
11010;SDS011;5558;42.702;23.178;2024-02-28T08:03:47;28.03;;;22.07;;
11010;SDS011;5558;42.702;23.178;2024-02-28T08:06:15;26.27;;;22.30;;
11010;SDS011;5558;42.702;23.178;2024-02-28T08:08:43;25.20;;;20.33;;
11010;SDS011;5558;42.702;23.178;2024-02-28T08:11:11;24.70;;;21.63;;
11010;SDS011;5558;42.702;23.178;2024-02-28T08:13:38;26.13;;;21.47;;
11010;SDS011;5558;42.702;23.178;2024-02-28T08:16:05;26.10;;;21.43;;
11010;SDS011;5558;42.702;23.178;2024-02-28T08:18:34;25.43;;;21.23;;
11010;SDS011;5558;42.702;23.178;2024-02-28T08:21:00;25.57;;;21.30;;
11010;SDS011;5558;42.702;23.178;2024-02-28T08:23:29;29.57;;;23.43;;
11010;SDS011;5558;42.702;23.178;2024-02-28T08:25:56;31.53;;;23.13;;
11010;SDS011;5558;42.702;23.178;2024-02-28T08:28:22;27.87;;;23.37;;
11010;SDS011;5558;42.702;23.178;2024-02-28T08:30:49;30.43;;;24.20;;
11010;SDS011;5558;42.702;23.178;2024-02-28T08:33:16;31.90;;;25.17;;
11010;SDS011;5558;42.702;23.178;2024-02-28T08:35:42;34.70;;;25.77;;
11010;SDS011;5558;42.702;23.178;2024-02-28T08:38:09;30.60;;;24.77;;
11010;SDS011;5558;42.702;23.178;2024-02-28T08:40:37;30.93;;;24.60;;
11010;SDS011;5558;42.702;23.178;2024-02-28T08:43:04;30.97;;;25.37;;
11010;SDS011;5558;42.702;23.178;2024-02-28T08:45:31;32.90;;;26.33;;
11010;SDS011;5558;42.702;23.178;2024-02-28T08:47:57;33.00;;;26.43;;
11010;SDS011;5558;42.702;23.178;2024-02-28T08:50:26;33.83;;;26.27;;
11010;SDS011;5558;42.702;23.178;2024-02-28T08:52:53;31.63;;;26.03;;
11010;SDS011;5558;42.702;23.178;2024-02-28T08:55:19;31.43;;;25.33;;
11010;SDS011;5558;42.702;23.178;2024-02-28T08:57:48;34.80;;;26.67;;
11010;SDS011;5558;42.702;23.178;2024-02-28T09:00:15;33.70;;;26.63;;
11010;SDS011;5558;42.702;23.178;2024-02-28T09:02:42;33.13;;;26.77;;
11010;SDS011;5558;42.702;23.178;2024-02-28T09:05:09;34.03;;;26.13;;
11010;SDS011;5558;42.702;23.178;2024-02-28T09:07:36;33.47;;;26.30;;
11010;SDS011;5558;42.702;23.178;2024-02-28T09:10:03;36.30;;;27.37;;
11010;SDS011;5558;42.702;23.178;2024-02-28T09:12:31;31.77;;;26.93;;
11010;SDS011;5558;42.702;23.178;2024-02-28T09:14:59;34.53;;;27.03;;
11010;SDS011;5558;42.702;23.178;2024-02-28T09:17:25;35.70;;;26.67;;
11010;SDS011;5558;42.702;23.178;2024-02-28T09:19:52;36.10;;;27.83;;
11010;SDS011;5558;42.702;23.178;2024-02-28T09:22:19;33.70;;;26.30;;
11010;SDS011;5558;42.702;23.178;2024-02-28T09:24:46;40.80;;;29.60;;
11010;SDS011;5558;42.702;23.178;2024-02-28T09:27:13;36.60;;;27.40;;
11010;SDS011;5558;42.702;23.178;2024-02-28T09:29:40;35.00;;;27.30;;
11010;SDS011;5558;42.702;23.178;2024-02-28T09:32:08;35.87;;;25.80;;
11010;SDS011;5558;42.702;23.178;2024-02-28T09:34:35;34.67;;;25.17;;
11010;SDS011;5558;42.702;23.178;2024-02-28T09:37:01;33.20;;;25.00;;
11010;SDS011;5558;42.702;23.178;2024-02-28T09:39:29;32.47;;;26.00;;
11010;SDS011;5558;42.702;23.178;2024-02-28T09:41:56;28.87;;;23.93;;
11010;SDS011;5558;42.702;23.178;2024-02-28T09:44:23;33.43;;;25.07;;
11010;SDS011;5558;42.702;23.178;2024-02-28T09:46:50;32.10;;;24.90;;
11010;SDS011;5558;42.702;23.178;2024-02-28T09:49:19;31.77;;;24.30;;
11010;SDS011;5558;42.702;23.178;2024-02-28T09:51:47;31.00;;;24.30;;
11010;SDS011;5558;42.702;23.178;2024-02-28T09:54:15;31.87;;;23.20;;
11010;SDS011;5558;42.702;23.178;2024-02-28T09:56:42;31.33;;;23.53;;
11010;SDS011;5558;42.702;23.178;2024-02-28T09:59:10;26.37;;;21.93;;
11010;SDS011;5558;42.702;23.178;2024-02-28T10:01:41;27.97;;;22.20;;
11010;SDS011;5558;42.702;23.178;2024-02-28T10:04:09;29.13;;;21.97;;
11010;SDS011;5558;42.702;23.178;2024-02-28T10:06:39;25.80;;;20.57;;
11010;SDS011;5558;42.702;23.178;2024-02-28T10:09:06;27.40;;;21.37;;
11010;SDS011;5558;42.702;23.178;2024-02-28T10:11:35;30.03;;;21.63;;
11010;SDS011;5558;42.702;23.178;2024-02-28T10:14:02;28.80;;;20.87;;
11010;SDS011;5558;42.702;23.178;2024-02-28T10:16:29;28.03;;;21.47;;
11010;SDS011;5558;42.702;23.178;2024-02-28T10:18:56;28.00;;;20.57;;
11010;SDS011;5558;42.702;23.178;2024-02-28T10:21:22;28.30;;;20.57;;
11010;SDS011;5558;42.702;23.178;2024-02-28T10:23:52;28.43;;;21.10;;
11010;SDS011;5558;42.702;23.178;2024-02-28T10:26:19;30.27;;;22.13;;
11010;SDS011;5558;42.702;23.178;2024-02-28T10:28:45;27.73;;;20.60;;
11010;SDS011;5558;42.702;23.178;2024-02-28T10:31:12;28.17;;;19.97;;
11010;SDS011;5558;42.702;23.178;2024-02-28T10:33:41;28.10;;;20.20;;
11010;SDS011;5558;42.702;23.178;2024-02-28T10:36:08;26.70;;;20.20;;
11010;SDS011;5558;42.702;23.178;2024-02-28T10:38:36;25.43;;;20.00;;
11010;SDS011;5558;42.702;23.178;2024-02-28T10:41:05;27.17;;;20.97;;
11010;SDS011;5558;42.702;23.178;2024-02-28T10:43:31;28.50;;;20.83;;
11010;SDS011;5558;42.702;23.178;2024-02-28T10:45:59;28.17;;;20.70;;
11010;SDS011;5558;42.702;23.178;2024-02-28T10:48:27;26.07;;;19.63;;
11010;SDS011;5558;42.702;23.178;2024-02-28T10:50:53;24.97;;;19.17;;
11010;SDS011;5558;42.702;23.178;2024-02-28T10:53:21;24.97;;;18.00;;
11010;SDS011;5558;42.702;23.178;2024-02-28T10:55:49;24.00;;;18.20;;
11010;SDS011;5558;42.702;23.178;2024-02-28T10:58:22;22.63;;;17.17;;
11010;SDS011;5558;42.702;23.178;2024-02-28T11:00:51;22.30;;;15.30;;
11010;SDS011;5558;42.702;23.178;2024-02-28T11:03:18;22.70;;;15.80;;
11010;SDS011;5558;42.702;23.178;2024-02-28T11:05:46;23.67;;;17.20;;
11010;SDS011;5558;42.702;23.178;2024-02-28T11:08:19;24.20;;;16.67;;
11010;SDS011;5558;42.702;23.178;2024-02-28T11:10:54;22.23;;;16.27;;
11010;SDS011;5558;42.702;23.178;2024-02-28T11:13:23;24.43;;;16.20;;
11010;SDS011;5558;42.702;23.178;2024-02-28T11:15:50;20.73;;;13.83;;
11010;SDS011;5558;42.702;23.178;2024-02-28T11:18:17;17.00;;;13.23;;
11010;SDS011;5558;42.702;23.178;2024-02-28T11:20:44;17.87;;;12.60;;
11010;SDS011;5558;42.702;23.178;2024-02-28T11:23:13;18.67;;;12.80;;
11010;SDS011;5558;42.702;23.178;2024-02-28T11:25:40;15.23;;;12.17;;
11010;SDS011;5558;42.702;23.178;2024-02-28T11:28:07;16.67;;;11.70;;
11010;SDS011;5558;42.702;23.178;2024-02-28T11:30:35;17.90;;;11.63;;
11010;SDS011;5558;42.702;23.178;2024-02-28T11:33:02;17.93;;;11.30;;
11010;SDS011;5558;42.702;23.178;2024-02-28T11:35:29;15.17;;;10.97;;
11010;SDS011;5558;42.702;23.178;2024-02-28T11:37:56;14.73;;;10.40;;
11010;SDS011;5558;42.702;23.178;2024-02-28T11:40:23;15.37;;;10.50;;
11010;SDS011;5558;42.702;23.178;2024-02-28T11:42:51;17.37;;;12.20;;
11010;SDS011;5558;42.702;23.178;2024-02-28T11:45:18;21.63;;;14.43;;
11010;SDS011;5558;42.702;23.178;2024-02-28T11:47:46;18.70;;;13.77;;
11010;SDS011;5558;42.702;23.178;2024-02-28T11:50:13;17.80;;;11.87;;
11010;SDS011;5558;42.702;23.178;2024-02-28T11:52:43;17.37;;;12.73;;
11010;SDS011;5558;42.702;23.178;2024-02-28T11:55:10;18.50;;;12.77;;
11010;SDS011;5558;42.702;23.178;2024-02-28T11:57:37;17.30;;;13.70;;
11010;SDS011;5558;42.702;23.178;2024-02-28T12:00:06;19.30;;;11.43;;
11010;SDS011;5558;42.702;23.178;2024-02-28T12:02:34;18.07;;;13.07;;
11010;SDS011;5558;42.702;23.178;2024-02-28T12:05:04;18.27;;;13.57;;
11010;SDS011;5558;42.702;23.178;2024-02-28T12:07:32;16.13;;;11.67;;
11010;SDS011;5558;42.702;23.178;2024-02-28T12:09:59;15.27;;;11.23;;
11010;SDS011;5558;42.702;23.178;2024-02-28T12:12:26;16.20;;;10.83;;
11010;SDS011;5558;42.702;23.178;2024-02-28T12:14:57;14.57;;;10.70;;
11010;SDS011;5558;42.702;23.178;2024-02-28T12:17:24;11.77;;;8.10;;
11010;SDS011;5558;42.702;23.178;2024-02-28T12:19:51;12.40;;;8.17;;
11010;SDS011;5558;42.702;23.178;2024-02-28T12:22:19;13.23;;;7.83;;
11010;SDS011;5558;42.702;23.178;2024-02-28T12:24:46;10.87;;;6.70;;
11010;SDS011;5558;42.702;23.178;2024-02-28T12:27:13;10.10;;;6.40;;
11010;SDS011;5558;42.702;23.178;2024-02-28T12:29:40;7.87;;;5.70;;
11010;SDS011;5558;42.702;23.178;2024-02-28T12:32:07;6.90;;;5.50;;
11010;SDS011;5558;42.702;23.178;2024-02-28T12:34:34;10.07;;;6.10;;
11010;SDS011;5558;42.702;23.178;2024-02-28T12:37:00;8.67;;;5.40;;
11010;SDS011;5558;42.702;23.178;2024-02-28T12:39:30;9.13;;;5.60;;
11010;SDS011;5558;42.702;23.178;2024-02-28T12:41:59;7.80;;;5.17;;
11010;SDS011;5558;42.702;23.178;2024-02-28T12:44:26;6.37;;;5.07;;
11010;SDS011;5558;42.702;23.178;2024-02-28T12:46:52;9.93;;;5.20;;
11010;SDS011;5558;42.702;23.178;2024-02-28T12:49:19;10.10;;;5.40;;
11010;SDS011;5558;42.702;23.178;2024-02-28T12:51:45;7.70;;;4.83;;
11010;SDS011;5558;42.702;23.178;2024-02-28T12:54:14;10.50;;;4.90;;
11010;SDS011;5558;42.702;23.178;2024-02-28T12:56:42;7.87;;;5.00;;
11010;SDS011;5558;42.702;23.178;2024-02-28T12:59:09;8.17;;;5.30;;
11010;SDS011;5558;42.702;23.178;2024-02-28T13:01:36;12.93;;;5.40;;
11010;SDS011;5558;42.702;23.178;2024-02-28T13:04:02;7.90;;;5.77;;
11010;SDS011;5558;42.702;23.178;2024-02-28T13:06:29;8.60;;;5.57;;
11010;SDS011;5558;42.702;23.178;2024-02-28T13:08:56;8.53;;;5.33;;
11010;SDS011;5558;42.702;23.178;2024-02-28T13:11:23;8.10;;;5.20;;
11010;SDS011;5558;42.702;23.178;2024-02-28T13:13:52;8.93;;;5.77;;
11010;SDS011;5558;42.702;23.178;2024-02-28T13:16:19;9.30;;;4.83;;
11010;SDS011;5558;42.702;23.178;2024-02-28T13:18:46;6.93;;;5.03;;
11010;SDS011;5558;42.702;23.178;2024-02-28T13:21:13;9.03;;;5.40;;
11010;SDS011;5558;42.702;23.178;2024-02-28T13:23:40;9.33;;;5.10;;
11010;SDS011;5558;42.702;23.178;2024-02-28T13:26:06;6.20;;;5.33;;
11010;SDS011;5558;42.702;23.178;2024-02-28T13:28:33;8.17;;;5.73;;
11010;SDS011;5558;42.702;23.178;2024-02-28T13:31:02;9.07;;;5.50;;
11010;SDS011;5558;42.702;23.178;2024-02-28T13:33:30;6.93;;;4.63;;
11010;SDS011;5558;42.702;23.178;2024-02-28T13:35:56;7.87;;;5.63;;
11010;SDS011;5558;42.702;23.178;2024-02-28T13:38:23;11.07;;;5.93;;
11010;SDS011;5558;42.702;23.178;2024-02-28T13:40:50;7.43;;;5.37;;
11010;SDS011;5558;42.702;23.178;2024-02-28T13:43:16;9.17;;;5.87;;
11010;SDS011;5558;42.702;23.178;2024-02-28T13:45:46;10.40;;;6.10;;
11010;SDS011;5558;42.702;23.178;2024-02-28T13:48:16;9.13;;;6.20;;
11010;SDS011;5558;42.702;23.178;2024-02-28T13:50:45;7.90;;;5.57;;
11010;SDS011;5558;42.702;23.178;2024-02-28T13:53:13;8.73;;;5.90;;
11010;SDS011;5558;42.702;23.178;2024-02-28T13:55:41;8.97;;;5.83;;
11010;SDS011;5558;42.702;23.178;2024-02-28T13:58:08;9.33;;;6.20;;
11010;SDS011;5558;42.702;23.178;2024-02-28T14:00:36;9.70;;;7.03;;
11010;SDS011;5558;42.702;23.178;2024-02-28T14:03:03;10.00;;;6.53;;
11010;SDS011;5558;42.702;23.178;2024-02-28T14:05:32;10.63;;;6.73;;
11010;SDS011;5558;42.702;23.178;2024-02-28T14:07:59;12.07;;;7.83;;
11010;SDS011;5558;42.702;23.178;2024-02-28T14:10:28;13.40;;;7.50;;
11010;SDS011;5558;42.702;23.178;2024-02-28T14:12:55;10.70;;;7.20;;
11010;SDS011;5558;42.702;23.178;2024-02-28T14:15:23;10.03;;;7.33;;
11010;SDS011;5558;42.702;23.178;2024-02-28T14:17:50;10.77;;;7.30;;
11010;SDS011;5558;42.702;23.178;2024-02-28T14:20:17;14.20;;;7.77;;
11010;SDS011;5558;42.702;23.178;2024-02-28T14:22:45;9.00;;;6.93;;
11010;SDS011;5558;42.702;23.178;2024-02-28T14:25:12;9.73;;;7.37;;